createdAt,value
2023-03-05T00:01:25.405Z,99.90
2023-03-05T00:03:54.486Z,99.90
2023-03-05T00:06:24.252Z,99.90
2023-03-05T00:08:53.256Z,99.90
2023-03-05T00:11:21.328Z,99.90
2023-03-05T00:13:52.725Z,99.90
2023-03-05T00:16:22.725Z,99.90
2023-03-05T00:18:50.073Z,99.90
2023-03-05T00:21:25.510Z,99.90
2023-03-05T00:23:54.077Z,99.90
2023-03-05T00:26:23.355Z,99.90
2023-03-05T00:28:51.788Z,99.90
2023-03-05T00:31:25.879Z,99.90
2023-03-05T00:33:55.735Z,99.90
2023-03-05T00:36:27.160Z,99.90
2023-03-05T00:38:55.174Z,99.90
2023-03-05T00:41:22.936Z,99.90
2023-03-05T00:43:50.785Z,99.90
2023-03-05T00:46:20.223Z,99.90
2023-03-05T00:48:47.997Z,99.90
2023-03-05T00:51:15.338Z,99.90
2023-03-05T00:53:43.003Z,99.90
2023-03-05T00:56:10.233Z,99.90
2023-03-05T00:58:37.893Z,99.90
2023-03-05T01:01:05.897Z,99.90
2023-03-05T01:03:34.957Z,99.90
2023-03-05T01:06:05.997Z,99.90
2023-03-05T01:08:34.938Z,99.90
2023-03-05T01:11:02.970Z,99.90
2023-03-05T01:13:30.301Z,99.90
2023-03-05T01:15:57.730Z,99.90
2023-03-05T01:18:24.941Z,99.90
2023-03-05T01:20:52.162Z,99.90
2023-03-05T01:23:19.970Z,99.90
2023-03-05T01:25:58.994Z,99.90
2023-03-05T01:28:27.459Z,99.90
2023-03-05T01:30:54.912Z,99.90
2023-03-05T01:33:22.124Z,99.90
2023-03-05T01:35:50.687Z,99.90
2023-03-05T01:38:18.210Z,99.90
2023-03-05T01:40:45.906Z,99.90
2023-03-05T01:43:13.152Z,99.90
2023-03-05T01:46:18.756Z,99.90
2023-03-05T01:48:50.076Z,99.90
2023-03-05T01:51:20.057Z,99.90
2023-03-05T01:53:47.788Z,99.90
2023-03-05T01:56:16.676Z,99.90
2023-03-05T01:58:45.055Z,99.90
2023-03-05T02:01:12.743Z,99.90
2023-03-05T02:03:41.289Z,99.90
2023-03-05T02:06:08.532Z,99.90
2023-03-05T02:08:35.809Z,99.90
2023-03-05T02:11:03.712Z,99.90
2023-03-05T02:13:35.563Z,99.90
2023-03-05T02:16:03.055Z,99.90
2023-03-05T02:18:30.376Z,99.90
2023-03-05T02:20:57.498Z,99.90
2023-03-05T02:23:33.653Z,99.90
2023-03-05T02:26:00.982Z,99.90
2023-03-05T02:28:35.206Z,99.90
2023-03-05T02:31:02.611Z,99.90
2023-03-05T02:33:29.791Z,99.90
2023-03-05T02:35:57.063Z,99.90
2023-03-05T02:38:24.330Z,99.90
2023-03-05T02:40:52.739Z,99.90
2023-03-05T02:43:20.257Z,99.90
2023-03-05T02:45:48.702Z,99.90
2023-03-05T02:48:16.364Z,99.90
2023-03-05T02:50:44.586Z,99.90
2023-03-05T02:53:11.752Z,99.90
2023-03-05T02:55:40.320Z,99.90
2023-03-05T02:58:07.680Z,99.90
2023-03-05T03:00:35.046Z,99.90
2023-03-05T03:03:02.411Z,99.90
2023-03-05T03:05:30.368Z,99.90
2023-03-05T03:07:57.541Z,99.90
2023-03-05T03:10:24.717Z,99.90
2023-03-05T03:12:52.169Z,99.90
2023-03-05T03:15:19.677Z,99.90
2023-03-05T03:17:46.901Z,99.90
2023-03-05T03:20:16.561Z,99.90
2023-03-05T03:22:45.637Z,99.90
2023-03-05T03:25:18.098Z,99.90
2023-03-05T03:27:45.371Z,99.90
2023-03-05T03:30:13.725Z,99.90
2023-03-05T03:32:40.885Z,99.90
2023-03-05T03:35:08.728Z,99.90
2023-03-05T03:37:36.876Z,99.90
2023-03-05T03:40:05.865Z,99.90
2023-03-05T03:42:33.495Z,99.90
2023-03-05T03:45:02.138Z,99.90
2023-03-05T03:47:30.972Z,99.90
2023-03-05T03:49:58.859Z,99.90
2023-03-05T03:52:26.511Z,99.90
2023-03-05T03:54:55.662Z,99.90
2023-03-05T03:57:23.094Z,99.90
2023-03-05T03:59:50.923Z,99.90
2023-03-05T04:02:18.704Z,99.90
2023-03-05T04:04:45.935Z,99.90
2023-03-05T04:07:13.436Z,99.90
2023-03-05T04:09:40.911Z,99.90
2023-03-05T04:12:08.451Z,99.90
2023-03-05T04:14:36.177Z,99.90
2023-03-05T04:17:03.809Z,99.90
2023-03-05T04:19:31.102Z,99.90
2023-03-05T04:21:59.204Z,99.90
2023-03-05T04:24:26.580Z,99.90
2023-03-05T04:26:53.759Z,99.90
2023-03-05T04:29:21.214Z,99.90
2023-03-05T04:31:48.514Z,99.90
2023-03-05T04:34:15.712Z,99.90
2023-03-05T04:36:42.982Z,99.90
2023-03-05T04:39:10.151Z,99.90
2023-03-05T04:41:37.327Z,99.90
2023-03-05T04:44:04.664Z,99.90
2023-03-05T04:46:32.421Z,99.90
2023-03-05T04:48:59.785Z,99.90
2023-03-05T04:51:26.994Z,99.90
2023-03-05T04:53:54.164Z,99.90
2023-03-05T04:56:21.637Z,99.90
2023-03-05T04:58:48.961Z,99.90
2023-03-05T05:01:16.669Z,99.90
2023-03-05T05:03:44.433Z,99.90
2023-03-05T05:06:11.824Z,99.90
2023-03-05T05:08:39.556Z,99.90
2023-03-05T05:11:07.933Z,99.90
2023-03-05T05:13:35.491Z,99.90
2023-03-05T05:16:05.683Z,99.90
2023-03-05T05:18:33.265Z,99.90
2023-03-05T05:21:00.832Z,99.90
2023-03-05T05:23:28.490Z,99.90
2023-03-05T05:25:58.483Z,99.90
2023-03-05T05:28:26.109Z,99.90
2023-03-05T05:30:54.710Z,99.90
2023-03-05T05:33:22.543Z,99.90
2023-03-05T05:35:51.007Z,99.90
2023-03-05T05:38:18.236Z,99.90
2023-03-05T05:40:45.389Z,99.90
2023-03-05T05:43:12.578Z,99.90
2023-03-05T05:45:40.094Z,99.90
2023-03-05T05:48:07.951Z,99.90
2023-03-05T05:50:35.725Z,99.90
2023-03-05T05:53:02.942Z,99.90
2023-03-05T05:55:30.145Z,99.90
2023-03-05T05:57:57.281Z,99.90
2023-03-05T06:00:24.745Z,99.90
2023-03-05T06:02:51.959Z,99.90
2023-03-05T06:05:19.136Z,99.90
2023-03-05T06:07:46.368Z,99.90
2023-03-05T06:10:13.951Z,99.90
2023-03-05T06:12:41.134Z,99.90
2023-03-05T06:15:08.864Z,99.90
2023-03-05T06:17:36.633Z,99.90
2023-03-05T06:20:06.843Z,99.90
2023-03-05T06:22:38.292Z,99.90
2023-03-05T06:25:07.647Z,99.90
2023-03-05T06:27:35.923Z,99.90
2023-03-05T06:30:04.906Z,99.90
2023-03-05T06:32:32.904Z,99.90
2023-03-05T06:35:00.192Z,99.90
2023-03-05T06:37:27.385Z,99.90
2023-03-05T06:39:54.621Z,99.90
2023-03-05T06:42:21.766Z,99.90
2023-03-05T06:44:48.982Z,99.90
2023-03-05T06:47:16.207Z,99.90
2023-03-05T06:49:43.483Z,99.90
2023-03-05T06:52:12.649Z,99.90
2023-03-05T06:54:40.295Z,99.90
2023-03-05T06:57:07.585Z,99.90
2023-03-05T06:59:34.761Z,99.90
2023-03-05T07:02:02.019Z,99.90
2023-03-05T07:04:29.229Z,99.90
2023-03-05T07:06:57.767Z,99.90
2023-03-05T07:09:25.048Z,99.90
2023-03-05T07:11:52.190Z,99.90
2023-03-05T07:14:19.348Z,99.90
2023-03-05T07:16:47.247Z,99.90
2023-03-05T07:19:14.890Z,99.90
2023-03-05T07:21:42.128Z,99.90
2023-03-05T07:24:09.315Z,99.90
2023-03-05T07:26:36.645Z,99.90
2023-03-05T07:29:04.048Z,99.90
2023-03-05T07:31:31.864Z,99.90
2023-03-05T07:34:01.220Z,99.90
2023-03-05T07:36:29.587Z,99.90
2023-03-05T07:38:58.200Z,99.90
2023-03-05T07:41:25.408Z,99.90
2023-03-05T07:43:54.787Z,99.90
2023-03-05T07:46:25.357Z,99.90
2023-03-05T07:48:54.478Z,99.90
2023-03-05T07:51:23.003Z,99.90
2023-03-05T07:53:51.760Z,99.90
2023-03-05T07:56:31.925Z,99.90
2023-03-05T07:59:01.658Z,99.90
2023-03-05T08:01:30.531Z,99.90
2023-03-05T08:03:58.054Z,99.90
2023-03-05T08:06:25.670Z,99.90
2023-03-05T08:08:53.541Z,99.90
2023-03-05T08:11:21.716Z,99.90
2023-03-05T08:13:49.073Z,99.90
2023-03-05T08:16:20.743Z,99.90
2023-03-05T08:18:48.565Z,99.90
2023-03-05T08:21:21.809Z,99.90
2023-03-05T08:23:49.361Z,99.90
2023-03-05T08:26:19.772Z,99.90
2023-03-05T08:28:47.694Z,99.90
2023-03-05T08:31:17.640Z,99.90
2023-03-05T08:33:44.939Z,99.90
2023-03-05T08:36:13.163Z,99.90
2023-03-05T08:38:40.639Z,99.90
2023-03-05T08:41:08.323Z,99.90
2023-03-05T08:43:35.586Z,99.90
2023-03-05T08:46:03.350Z,99.90
2023-03-05T08:48:31.741Z,99.90
2023-03-05T08:51:05.738Z,99.90
2023-03-05T08:53:33.250Z,99.90
2023-03-05T08:56:01.149Z,99.90
2023-03-05T08:58:28.333Z,99.90
2023-03-05T09:00:56.353Z,99.90
2023-03-05T09:03:23.776Z,99.90
2023-03-05T09:05:52.389Z,99.90
2023-03-05T09:08:20.438Z,99.90
2023-03-05T09:10:47.656Z,99.90
2023-03-05T09:13:14.897Z,99.90
2023-03-05T09:15:42.141Z,99.90
2023-03-05T09:18:09.384Z,99.90
2023-03-05T09:20:36.919Z,99.90
2023-03-05T09:23:04.775Z,98.50
2023-03-05T09:25:32.999Z,97.00
2023-03-05T09:28:00.145Z,97.70
2023-03-05T09:30:27.475Z,99.30
2023-03-05T09:32:54.849Z,99.90
2023-03-05T09:35:22.151Z,99.90
2023-03-05T09:37:49.410Z,99.90
2023-03-05T09:40:19.554Z,99.10
2023-03-05T09:43:02.341Z,96.60
2023-03-05T09:45:35.651Z,98.20
2023-03-05T09:48:25.801Z,99.10
2023-03-05T09:51:04.787Z,99.90
2023-03-05T09:53:44.786Z,99.90
2023-03-05T09:56:16.511Z,99.90
2023-03-05T09:58:48.659Z,99.90
2023-03-05T10:01:21.444Z,99.90
2023-03-05T10:03:54.708Z,99.90
2023-03-05T10:06:47.158Z,99.90
2023-03-05T10:09:42.960Z,99.90
2023-03-05T10:12:28.206Z,99.90
2023-03-05T10:14:55.520Z,99.90
2023-03-05T10:17:44.187Z,99.90
2023-03-05T10:20:35.370Z,99.90
2023-03-05T10:23:08.499Z,99.90
2023-03-05T10:25:59.570Z,99.90
2023-03-05T10:28:53.191Z,99.90
2023-03-05T10:31:31.505Z,99.90
2023-03-05T10:34:22.426Z,99.90
2023-03-05T10:37:14.942Z,99.90
2023-03-05T10:39:51.185Z,99.90
2023-03-05T10:42:56.302Z,99.90
2023-03-05T10:45:29.288Z,99.90
2023-03-05T10:48:25.474Z,99.90
2023-03-05T10:51:13.555Z,99.90
2023-03-05T10:54:04.710Z,99.90
2023-03-05T10:56:32.035Z,99.90
2023-03-05T10:58:59.271Z,99.90
2023-03-05T11:01:29.072Z,99.90
2023-03-05T11:04:25.236Z,99.90
2023-03-05T11:06:52.469Z,99.90
2023-03-05T11:09:29.348Z,99.90
2023-03-05T11:12:06.304Z,99.90
2023-03-05T11:14:35.038Z,99.90
2023-03-05T11:17:23.423Z,99.90
2023-03-05T11:19:50.626Z,99.90
2023-03-05T11:22:23.554Z,99.90
2023-03-05T11:25:12.913Z,99.90
2023-03-05T11:27:48.942Z,99.90
2023-03-05T11:30:36.805Z,99.90
2023-03-05T11:33:20.448Z,99.90
2023-03-05T11:35:49.072Z,99.90
2023-03-05T11:38:21.545Z,99.90
2023-03-05T11:40:50.075Z,99.90
2023-03-05T11:43:23.030Z,99.90
2023-03-05T11:45:54.099Z,99.90
2023-03-05T11:48:32.425Z,99.90
2023-03-05T11:51:02.607Z,99.90
2023-03-05T11:53:35.879Z,99.90
2023-03-05T11:56:21.220Z,99.90
2023-03-05T11:59:13.573Z,99.90
2023-03-05T12:01:48.447Z,99.90
2023-03-05T12:04:20.860Z,99.90
2023-03-05T12:06:58.659Z,99.90
2023-03-05T12:09:47.504Z,99.90
2023-03-05T12:12:52.885Z,99.90
2023-03-05T12:15:46.902Z,99.90
2023-03-05T12:18:29.231Z,99.90
2023-03-05T12:21:18.748Z,99.90
2023-03-05T12:23:47.693Z,99.90
2023-03-05T12:26:15.277Z,99.90
2023-03-05T12:28:42.883Z,99.90
2023-03-05T12:31:10.362Z,99.90
2023-03-05T12:33:42.048Z,99.10
2023-03-05T12:36:21.357Z,97.90
2023-03-05T12:38:52.325Z,97.30
2023-03-05T12:41:22.490Z,97.80
2023-03-05T12:44:05.029Z,96.60
2023-03-05T12:46:35.404Z,96.70
2023-03-05T12:49:18.678Z,97.10
2023-03-05T12:51:50.466Z,97.30
2023-03-05T12:54:29.572Z,98.50
2023-03-05T12:57:18.468Z,98.30
2023-03-05T12:59:59.444Z,98.60
2023-03-05T13:02:45.210Z,98.80
2023-03-05T13:05:21.869Z,99.90
2023-03-05T13:07:50.981Z,99.60
2023-03-05T13:10:27.516Z,99.50
2023-03-05T13:12:58.317Z,99.30
2023-03-05T13:15:26.569Z,98.40
2023-03-05T13:17:56.909Z,98.80
2023-03-05T13:20:40.608Z,99.90
2023-03-05T13:23:24.131Z,99.90
2023-03-05T13:26:02.402Z,99.90
2023-03-05T13:28:30.913Z,99.90
2023-03-05T13:31:02.538Z,99.90
2023-03-05T13:33:32.760Z,99.90
2023-03-05T13:36:00.453Z,99.90
2023-03-05T13:38:33.668Z,99.90
2023-03-05T13:41:19.625Z,99.90
2023-03-05T13:43:51.826Z,99.90
2023-03-05T13:46:31.658Z,99.90
2023-03-05T13:49:28.750Z,99.60
2023-03-05T13:51:57.764Z,99.90
2023-03-05T13:54:27.181Z,99.90
2023-03-05T13:56:56.413Z,99.90
2023-03-05T13:59:30.636Z,99.90
2023-03-05T14:02:19.693Z,99.90
2023-03-05T14:04:48.084Z,99.90
2023-03-05T14:07:26.969Z,99.90
2023-03-05T14:09:56.526Z,99.90
2023-03-05T14:12:42.625Z,99.90
2023-03-05T14:15:27.673Z,99.90
2023-03-05T14:18:19.406Z,99.90
2023-03-05T14:21:09.796Z,99.90
2023-03-05T14:23:40.984Z,99.90
2023-03-05T14:26:46.236Z,99.90
2023-03-05T14:29:19.460Z,99.90
2023-03-05T14:32:18.068Z,99.90
2023-03-05T14:34:51.904Z,99.90
2023-03-05T14:37:25.269Z,99.90
2023-03-05T14:39:59.259Z,99.90
2023-03-05T14:42:31.792Z,99.90
2023-03-05T14:45:18.363Z,99.90
2023-03-05T14:47:45.782Z,99.90
2023-03-05T14:50:20.123Z,99.90
2023-03-05T14:52:51.017Z,99.90
2023-03-05T14:55:21.550Z,99.90
2023-03-05T14:57:51.496Z,99.90
2023-03-05T15:00:20.488Z,99.90
2023-03-05T15:02:48.266Z,99.90
2023-03-05T15:05:17.798Z,99.90
2023-03-05T15:07:46.155Z,99.90
2023-03-05T15:10:18.533Z,99.90
2023-03-05T15:13:13.061Z,99.90
2023-03-05T15:15:41.908Z,99.90
2023-03-05T15:18:17.351Z,99.90
2023-03-05T15:20:45.935Z,99.90
2023-03-05T15:23:13.260Z,99.90
2023-03-05T15:25:40.769Z,99.90
2023-03-05T15:28:08.150Z,99.90
2023-03-05T15:30:38.338Z,99.90
2023-03-05T15:33:08.180Z,99.90
2023-03-05T15:35:36.064Z,99.90
2023-03-05T15:38:03.508Z,99.90
2023-03-05T15:40:31.416Z,99.90
2023-03-05T15:43:00.280Z,99.90
2023-03-05T15:45:27.908Z,99.90
2023-03-05T15:47:55.446Z,99.90
2023-03-05T15:50:22.842Z,99.90
2023-03-05T15:52:50.588Z,99.90
2023-03-05T15:55:21.077Z,99.90
2023-03-05T15:57:50.904Z,99.90
2023-03-05T16:00:25.689Z,99.90
2023-03-05T16:02:53.407Z,99.90
2023-03-05T16:05:21.844Z,99.90
2023-03-05T16:07:51.825Z,99.90
2023-03-05T16:10:26.524Z,99.90
2023-03-05T16:13:07.472Z,99.90
2023-03-05T16:15:35.497Z,99.90
2023-03-05T16:18:05.842Z,99.90
2023-03-05T16:20:33.167Z,99.90
2023-03-05T16:23:00.337Z,99.90
2023-03-05T16:25:27.529Z,99.90
2023-03-05T16:27:54.706Z,99.90
2023-03-05T16:30:22.053Z,99.90
2023-03-05T16:32:50.512Z,99.90
2023-03-05T16:35:19.179Z,99.90
2023-03-05T16:37:46.553Z,99.90
2023-03-05T16:40:14.505Z,99.90
2023-03-05T16:42:42.080Z,99.90
2023-03-05T16:45:11.257Z,99.90
2023-03-05T16:47:40.147Z,99.90
2023-03-05T16:50:09.582Z,99.90
2023-03-05T16:52:36.914Z,99.90
2023-03-05T16:55:05.483Z,99.90
2023-03-05T16:57:32.645Z,99.90
2023-03-05T17:00:02.374Z,99.90
2023-03-05T17:02:30.148Z,99.90
2023-03-05T17:04:57.753Z,99.90
2023-03-05T17:07:26.362Z,99.90
2023-03-05T17:09:54.143Z,99.90
2023-03-05T17:12:23.621Z,99.90
2023-03-05T17:14:50.886Z,99.90
2023-03-05T17:17:18.196Z,99.90
2023-03-05T17:19:45.678Z,99.90
2023-03-05T17:22:13.078Z,99.90
2023-03-05T17:24:42.709Z,99.90
2023-03-05T17:27:10.613Z,99.90
2023-03-05T17:29:37.904Z,99.90
2023-03-05T17:32:05.639Z,99.90
2023-03-05T17:34:36.694Z,99.90
2023-03-05T17:37:05.260Z,99.90
2023-03-05T17:39:32.805Z,99.90
2023-03-05T17:42:00.926Z,99.90
2023-03-05T17:44:28.132Z,99.90
2023-03-05T17:46:55.718Z,99.90
2023-03-05T17:49:22.997Z,99.90
2023-03-05T17:51:50.297Z,99.90
2023-03-05T17:54:18.027Z,99.90
2023-03-05T17:56:47.934Z,99.90
2023-03-05T17:59:16.265Z,99.90
2023-03-05T18:01:44.088Z,99.90
2023-03-05T18:04:11.461Z,99.90
2023-03-05T18:06:38.747Z,99.90
2023-03-05T18:09:05.937Z,99.90
2023-03-05T18:11:33.573Z,99.90
2023-03-05T18:14:01.500Z,99.90
2023-03-05T18:16:29.286Z,99.90
2023-03-05T18:18:56.551Z,99.90
2023-03-05T18:21:25.011Z,99.90
2023-03-05T18:23:52.437Z,99.90
2023-03-05T18:26:19.629Z,99.90
2023-03-05T18:28:47.612Z,99.90
2023-03-05T18:31:15.084Z,99.90
2023-03-05T18:33:42.861Z,99.90
2023-03-05T18:36:11.986Z,99.90
2023-03-05T18:38:39.446Z,99.90
2023-03-05T18:41:08.523Z,99.90
2023-03-05T18:43:35.899Z,99.90
2023-03-05T18:46:04.921Z,99.90
2023-03-05T18:48:32.470Z,99.90
2023-03-05T18:51:01.970Z,99.90
2023-03-05T18:53:29.904Z,99.90
2023-03-05T18:55:57.352Z,99.90
2023-03-05T18:58:26.034Z,99.90
2023-03-05T19:00:53.736Z,99.90
2023-03-05T19:03:22.849Z,99.90
2023-03-05T19:05:51.090Z,99.90
2023-03-05T19:08:19.316Z,99.90
2023-03-05T19:10:47.061Z,99.90
2023-03-05T19:13:39.817Z,99.90
2023-03-05T19:16:22.435Z,99.90
2023-03-05T19:19:15.349Z,99.90
2023-03-05T19:21:46.150Z,99.90
2023-03-05T19:24:13.975Z,99.90
2023-03-05T19:26:41.939Z,99.90
2023-03-05T19:29:09.537Z,99.90
2023-03-05T19:31:37.771Z,99.90
2023-03-05T19:34:05.749Z,99.90
2023-03-05T19:36:34.589Z,99.90
2023-03-05T19:39:06.644Z,99.90
2023-03-05T19:41:34.473Z,99.90
2023-03-05T19:44:02.150Z,99.90
2023-03-05T19:46:29.956Z,99.90
2023-03-05T19:48:57.568Z,99.90
2023-03-05T19:51:25.904Z,99.90
2023-03-05T19:53:53.425Z,99.90
2023-03-05T19:56:20.964Z,99.90
2023-03-05T19:58:48.955Z,99.90
2023-03-05T20:01:22.199Z,99.90
2023-03-05T20:03:54.483Z,99.90
2023-03-05T20:06:23.912Z,99.90
2023-03-05T20:08:51.740Z,99.90
2023-03-05T20:11:19.968Z,99.90
2023-03-05T20:13:47.481Z,99.90
2023-03-05T20:16:27.325Z,99.90
2023-03-05T20:18:55.076Z,99.90
2023-03-05T20:21:27.721Z,99.90
2023-03-05T20:23:57.418Z,99.90
2023-03-05T20:26:26.237Z,99.90
2023-03-05T20:28:54.799Z,99.90
2023-03-05T20:31:24.509Z,99.90
2023-03-05T20:33:52.404Z,99.90
2023-03-05T20:36:19.641Z,99.90
2023-03-05T20:38:46.855Z,99.90
2023-03-05T20:41:16.772Z,99.90
2023-03-05T20:43:47.675Z,99.90
2023-03-05T20:46:23.506Z,99.90
2023-03-05T20:48:53.244Z,99.90
2023-03-05T20:51:24.561Z,99.90
2023-03-05T20:53:54.162Z,99.90
2023-03-05T20:56:21.389Z,99.90
2023-03-05T20:58:49.772Z,99.90
2023-03-05T21:01:17.052Z,99.90
2023-03-05T21:03:44.199Z,99.90
2023-03-05T21:06:11.622Z,99.90
2023-03-05T21:08:38.843Z,99.90
2023-03-05T21:11:10.243Z,99.90
2023-03-05T21:13:38.751Z,99.90
2023-03-05T21:16:11.005Z,99.90
2023-03-05T21:18:39.031Z,99.90
2023-03-05T21:21:06.750Z,99.90
2023-03-05T21:23:34.435Z,99.90
2023-03-05T21:26:03.947Z,99.90
2023-03-05T21:28:31.755Z,99.90
2023-03-05T21:31:05.428Z,99.90
2023-03-05T21:33:32.814Z,99.90
2023-03-05T21:36:00.099Z,99.90
2023-03-05T21:38:29.893Z,99.90
2023-03-05T21:40:58.569Z,99.90
2023-03-05T21:43:26.725Z,99.90
2023-03-05T21:45:54.895Z,99.90
2023-03-05T21:48:23.014Z,99.90
2023-03-05T21:50:51.036Z,99.90
2023-03-05T21:53:19.769Z,99.90
2023-03-05T21:56:02.574Z,99.90
2023-03-05T21:58:32.411Z,99.90
2023-03-05T22:01:00.412Z,99.90
2023-03-05T22:03:28.873Z,99.90
2023-03-05T22:05:56.900Z,99.90
2023-03-05T22:08:24.780Z,99.90
2023-03-05T22:10:52.061Z,99.90
2023-03-05T22:13:20.486Z,99.90
2023-03-05T22:15:51.678Z,99.90
2023-03-05T22:18:24.377Z,99.90
2023-03-05T22:20:52.199Z,99.90
2023-03-05T22:23:24.592Z,99.90
2023-03-05T22:25:59.800Z,99.90
2023-03-05T22:28:28.136Z,99.90
2023-03-05T22:30:55.866Z,99.90
2023-03-05T22:33:23.792Z,99.90
2023-03-05T22:35:51.705Z,99.90
2023-03-05T22:38:19.402Z,99.90
2023-03-05T22:40:48.162Z,99.90
2023-03-05T22:43:16.119Z,99.90
2023-03-05T22:45:43.593Z,99.90
2023-03-05T22:48:11.360Z,99.90
2023-03-05T22:50:40.995Z,99.90
2023-03-05T22:53:08.339Z,99.90
2023-03-05T22:55:40.056Z,99.90
2023-03-05T22:58:07.312Z,99.90
2023-03-05T23:00:34.558Z,99.90
2023-03-05T23:03:06.823Z,99.90
2023-03-05T23:05:34.766Z,99.90
2023-03-05T23:08:01.995Z,99.90
2023-03-05T23:10:29.340Z,99.90
2023-03-05T23:12:59.103Z,99.90
2023-03-05T23:15:32.972Z,99.90
2023-03-05T23:18:00.580Z,99.90
2023-03-05T23:20:30.982Z,99.90
2023-03-05T23:22:58.252Z,99.90
2023-03-05T23:25:28.699Z,99.90
2023-03-05T23:27:57.888Z,99.90
2023-03-05T23:30:34.432Z,99.90
2023-03-05T23:33:07.629Z,99.90
2023-03-05T23:35:40.822Z,99.90
2023-03-05T23:38:12.257Z,99.90
2023-03-05T23:40:48.234Z,99.90
2023-03-05T23:43:17.075Z,99.90
2023-03-05T23:45:48.126Z,99.90
2023-03-05T23:48:16.827Z,99.90
2023-03-05T23:50:47.592Z,99.90
2023-03-05T23:53:23.806Z,99.90
2023-03-05T23:55:52.956Z,99.90
2023-03-05T23:58:20.822Z,99.90
